sensor_id;sensor_type;location;lat;lon;timestamp;pressure;altitude;pressure_sealevel;temperature;humidity
57990;BME280;58373;51.824;5.564;2023-04-26T00:01:47;101857.31;;;3.59;79.13
57990;BME280;58373;51.824;5.564;2023-04-26T00:04:12;101860.56;;;3.64;79.66
57990;BME280;58373;51.824;5.564;2023-04-26T00:06:38;101858.13;;;3.61;79.54
57990;BME280;58373;51.824;5.564;2023-04-26T00:09:03;101856.41;;;3.60;79.43
57990;BME280;58373;51.824;5.564;2023-04-26T00:11:29;101860.78;;;3.58;79.77
57990;BME280;58373;51.824;5.564;2023-04-26T00:13:54;101859.09;;;3.57;80.46
57990;BME280;58373;51.824;5.564;2023-04-26T00:16:19;101857.53;;;3.53;80.31
57990;BME280;58373;51.824;5.564;2023-04-26T00:18:45;101864.47;;;3.51;79.51
57990;BME280;58373;51.824;5.564;2023-04-26T00:21:10;101867.91;;;3.50;79.90
57990;BME280;58373;51.824;5.564;2023-04-26T00:23:35;101861.81;;;3.53;80.26
57990;BME280;58373;51.824;5.564;2023-04-26T00:26:01;101866.00;;;3.55;79.84
57990;BME280;58373;51.824;5.564;2023-04-26T00:28:27;101864.31;;;3.54;79.73
57990;BME280;58373;51.824;5.564;2023-04-26T00:30:52;101867.78;;;3.53;79.62
57990;BME280;58373;51.824;5.564;2023-04-26T00:33:17;101866.13;;;3.52;79.29
57990;BME280;58373;51.824;5.564;2023-04-26T00:35:43;101862.78;;;3.50;79.61
57990;BME280;58373;51.824;5.564;2023-04-26T00:38:08;101861.16;;;3.47;79.51
57990;BME280;58373;51.824;5.564;2023-04-26T00:40:33;101869.81;;;3.45;79.68
57990;BME280;58373;51.824;5.564;2023-04-26T00:42:59;101869.91;;;3.42;79.37
57990;BME280;58373;51.824;5.564;2023-04-26T00:45:24;101873.44;;;3.38;79.99
57990;BME280;58373;51.824;5.564;2023-04-26T00:47:50;101877.13;;;3.31;79.98
57990;BME280;58373;51.824;5.564;2023-04-26T00:50:15;101879.84;;;3.26;80.22
57990;BME280;58373;51.824;5.564;2023-04-26T00:52:40;101869.06;;;3.16;80.00
57990;BME280;58373;51.824;5.564;2023-04-26T00:55:06;101872.72;;;3.09;79.76
57990;BME280;58373;51.824;5.564;2023-04-26T00:57:31;101858.44;;;3.02;80.51
57990;BME280;58373;51.824;5.564;2023-04-26T00:59:57;101861.22;;;2.96;80.14
57990;BME280;58373;51.824;5.564;2023-04-26T01:02:22;101866.44;;;2.93;80.22
57990;BME280;58373;51.824;5.564;2023-04-26T01:04:48;101866.53;;;2.90;80.11
57990;BME280;58373;51.824;5.564;2023-04-26T01:07:13;101862.44;;;2.84;80.81
57990;BME280;58373;51.824;5.564;2023-04-26T01:09:38;101848.88;;;2.82;80.65
57990;BME280;58373;51.824;5.564;2023-04-26T01:12:05;101854.72;;;2.86;80.52
57990;BME280;58373;51.824;5.564;2023-04-26T01:14:30;101857.19;;;2.89;80.91
57990;BME280;58373;51.824;5.564;2023-04-26T01:16:56;101863.97;;;2.90;81.88
57990;BME280;58373;51.824;5.564;2023-04-26T01:19:21;101865.75;;;2.88;82.02
57990;BME280;58373;51.824;5.564;2023-04-26T01:21:47;101861.53;;;2.87;81.87
57990;BME280;58373;51.824;5.564;2023-04-26T01:24:12;101865.97;;;2.82;81.63
57990;BME280;58373;51.824;5.564;2023-04-26T01:26:38;101867.78;;;2.78;82.15
57990;BME280;58373;51.824;5.564;2023-04-26T01:29:19;101870.47;;;2.74;82.06
57990;BME280;58373;51.824;5.564;2023-04-26T01:31:45;101866.38;;;2.70;82.29
57990;BME280;58373;51.824;5.564;2023-04-26T01:34:10;101865.56;;;2.67;82.61
57990;BME280;58373;51.824;5.564;2023-04-26T01:36:35;101872.34;;;2.69;82.87
57990;BME280;58373;51.824;5.564;2023-04-26T01:39:01;101876.75;;;2.65;82.73
57990;BME280;58373;51.824;5.564;2023-04-26T01:41:26;101862.41;;;2.59;83.33
57990;BME280;58373;51.824;5.564;2023-04-26T01:43:51;101877.78;;;2.59;82.61
57990;BME280;58373;51.824;5.564;2023-04-26T01:46:17;101871.84;;;2.57;83.80
57990;BME280;58373;51.824;5.564;2023-04-26T01:48:42;101868.44;;;2.58;83.44
57990;BME280;58373;51.824;5.564;2023-04-26T01:51:08;101860.75;;;2.58;83.13
57990;BME280;58373;51.824;5.564;2023-04-26T01:53:33;101871.84;;;2.57;83.38
57990;BME280;58373;51.824;5.564;2023-04-26T01:56:02;101860.81;;;2.55;83.32
57990;BME280;58373;51.824;5.564;2023-04-26T01:58:28;101860.91;;;2.52;83.56
57990;BME280;58373;51.824;5.564;2023-04-26T02:00:53;101858.34;;;2.52;82.86
57990;BME280;58373;51.824;5.564;2023-04-26T02:03:18;101862.50;;;2.56;83.12
57990;BME280;58373;51.824;5.564;2023-04-26T02:05:43;101858.13;;;2.60;83.06
57990;BME280;58373;51.824;5.564;2023-04-26T02:08:09;101863.97;;;2.63;83.55
57990;BME280;58373;51.824;5.564;2023-04-26T02:10:34;101860.53;;;2.64;83.67
57990;BME280;58373;51.824;5.564;2023-04-26T02:12:59;101862.31;;;2.62;83.11
57990;BME280;58373;51.824;5.564;2023-04-26T02:15:25;101863.13;;;2.63;83.61
57990;BME280;58373;51.824;5.564;2023-04-26T02:17:50;101865.94;;;2.55;83.85
57990;BME280;58373;51.824;5.564;2023-04-26T02:20:17;101864.47;;;2.48;83.41
57990;BME280;58373;51.824;5.564;2023-04-26T02:22:42;101868.00;;;2.44;84.39
57990;BME280;58373;51.824;5.564;2023-04-26T02:25:08;101863.81;;;2.42;83.70
57990;BME280;58373;51.824;5.564;2023-04-26T02:27:33;101860.47;;;2.39;84.58
57990;BME280;58373;51.824;5.564;2023-04-26T02:29:58;101863.06;;;2.38;83.95
57990;BME280;58373;51.824;5.564;2023-04-26T02:32:23;101863.97;;;2.37;84.68
57990;BME280;58373;51.824;5.564;2023-04-26T02:34:49;101858.03;;;2.35;84.43
57990;BME280;58373;51.824;5.564;2023-04-26T02:37:14;101869.28;;;2.31;84.68
57990;BME280;58373;51.824;5.564;2023-04-26T02:39:39;101861.78;;;2.25;84.48
57990;BME280;58373;51.824;5.564;2023-04-26T02:42:10;101860.13;;;2.24;84.30
57990;BME280;58373;51.824;5.564;2023-04-26T02:44:36;101858.34;;;2.26;84.80
57990;BME280;58373;51.824;5.564;2023-04-26T02:47:03;101865.25;;;2.22;84.36
57990;BME280;58373;51.824;5.564;2023-04-26T02:49:29;101855.97;;;2.20;85.11
57990;BME280;58373;51.824;5.564;2023-04-26T02:51:54;101856.16;;;2.13;85.04
57990;BME280;58373;51.824;5.564;2023-04-26T02:54:20;101863.91;;;2.10;84.55
57990;BME280;58373;51.824;5.564;2023-04-26T02:56:45;101855.53;;;2.05;84.91
57990;BME280;58373;51.824;5.564;2023-04-26T02:59:10;101852.19;;;2.03;84.97
57990;BME280;58373;51.824;5.564;2023-04-26T03:01:35;101852.25;;;2.00;85.26
57990;BME280;58373;51.824;5.564;2023-04-26T03:04:01;101850.59;;;1.99;84.95
57990;BME280;58373;51.824;5.564;2023-04-26T03:06:26;101848.91;;;1.98;84.64
57990;BME280;58373;51.824;5.564;2023-04-26T03:08:52;101845.41;;;2.02;85.42
57990;BME280;58373;51.824;5.564;2023-04-26T03:11:17;101839.38;;;2.03;85.04
57990;BME280;58373;51.824;5.564;2023-04-26T03:13:42;101841.84;;;2.06;85.24
57990;BME280;58373;51.824;5.564;2023-04-26T03:16:08;101846.19;;;2.04;85.60
57990;BME280;58373;51.824;5.564;2023-04-26T03:18:33;101852.25;;;2.00;85.63
57990;BME280;58373;51.824;5.564;2023-04-26T03:20:58;101847.25;;;1.97;85.75
57990;BME280;58373;51.824;5.564;2023-04-26T03:23:23;101854.03;;;1.98;86.09
57990;BME280;58373;51.824;5.564;2023-04-26T03:25:49;101847.25;;;1.97;85.63
57990;BME280;58373;51.824;5.564;2023-04-26T03:28:15;101849.84;;;1.96;86.30
57990;BME280;58373;51.824;5.564;2023-04-26T03:30:40;101843.03;;;1.95;86.40
57990;BME280;58373;51.824;5.564;2023-04-26T03:33:05;101838.88;;;1.92;85.61
57990;BME280;58373;51.824;5.564;2023-04-26T03:35:31;101835.53;;;1.90;86.31
57990;BME280;58373;51.824;5.564;2023-04-26T03:37:56;101845.94;;;1.84;85.88
57990;BME280;58373;51.824;5.564;2023-04-26T03:40:21;101846.84;;;1.81;86.62
57990;BME280;58373;51.824;5.564;2023-04-26T03:42:46;101841.72;;;1.81;86.49
57990;BME280;58373;51.824;5.564;2023-04-26T03:45:11;101835.84;;;1.79;86.03
57990;BME280;58373;51.824;5.564;2023-04-26T03:47:37;101836.75;;;1.77;86.51
57990;BME280;58373;51.824;5.564;2023-04-26T03:50:02;101840.19;;;1.76;85.77
57990;BME280;58373;51.824;5.564;2023-04-26T03:52:27;101835.13;;;1.74;85.82
57990;BME280;58373;51.824;5.564;2023-04-26T03:54:52;101830.91;;;1.72;85.78
57990;BME280;58373;51.824;5.564;2023-04-26T03:57:18;101839.41;;;1.74;86.33
57990;BME280;58373;51.824;5.564;2023-04-26T03:59:43;101838.44;;;1.78;85.95
57990;BME280;58373;51.824;5.564;2023-04-26T04:02:08;101843.41;;;1.82;86.42
57990;BME280;58373;51.824;5.564;2023-04-26T04:04:33;101839.88;;;1.86;86.48
57990;BME280;58373;51.824;5.564;2023-04-26T04:06:58;101836.34;;;1.91;85.98
57990;BME280;58373;51.824;5.564;2023-04-26T04:09:24;101845.66;;;1.93;86.57
57990;BME280;58373;51.824;5.564;2023-04-26T04:11:49;101837.09;;;1.94;85.97
57990;BME280;58373;51.824;5.564;2023-04-26T04:14:14;101836.19;;;1.97;86.38
57990;BME280;58373;51.824;5.564;2023-04-26T04:16:39;101828.50;;;1.97;86.46
57990;BME280;58373;51.824;5.564;2023-04-26T04:19:05;101837.00;;;1.97;86.51
57990;BME280;58373;51.824;5.564;2023-04-26T04:21:30;101837.00;;;1.97;86.45
57990;BME280;58373;51.824;5.564;2023-04-26T04:23:55;101838.88;;;1.92;86.54
57990;BME280;58373;51.824;5.564;2023-04-26T04:26:21;101830.53;;;1.85;86.35
57990;BME280;58373;51.824;5.564;2023-04-26T04:28:46;101832.34;;;1.82;86.67
57990;BME280;58373;51.824;5.564;2023-04-26T04:31:12;101836.66;;;1.80;86.66
57990;BME280;58373;51.824;5.564;2023-04-26T04:33:38;101839.28;;;1.78;86.79
57990;BME280;58373;51.824;5.564;2023-04-26T04:36:03;101842.66;;;1.79;86.86
57990;BME280;58373;51.824;5.564;2023-04-26T04:38:29;101845.19;;;1.80;86.78
57990;BME280;58373;51.824;5.564;2023-04-26T04:40:54;101849.34;;;1.83;87.31
57990;BME280;58373;51.824;5.564;2023-04-26T04:43:20;101851.00;;;1.85;87.01
57990;BME280;58373;51.824;5.564;2023-04-26T04:45:47;101849.28;;;1.86;87.27
57990;BME280;58373;51.824;5.564;2023-04-26T04:48:13;101849.34;;;1.83;87.10
57990;BME280;58373;51.824;5.564;2023-04-26T04:50:38;101841.72;;;1.81;86.95
57990;BME280;58373;51.824;5.564;2023-04-26T04:53:03;101852.00;;;1.80;87.01
57990;BME280;58373;51.824;5.564;2023-04-26T04:55:29;101847.78;;;1.79;87.71
57990;BME280;58373;51.824;5.564;2023-04-26T04:57:54;101847.69;;;1.82;87.92
57990;BME280;58373;51.824;5.564;2023-04-26T05:00:20;101856.16;;;1.84;88.03
57990;BME280;58373;51.824;5.564;2023-04-26T05:02:45;101854.38;;;1.86;87.67
57990;BME280;58373;51.824;5.564;2023-04-26T05:05:10;101861.09;;;1.90;88.40
57990;BME280;58373;51.824;5.564;2023-04-26T05:07:36;101856.69;;;1.95;87.96
57990;BME280;58373;51.824;5.564;2023-04-26T05:10:01;101856.59;;;1.98;87.97
57990;BME280;58373;51.824;5.564;2023-04-26T05:12:26;101853.84;;;2.04;87.77
57990;BME280;58373;51.824;5.564;2023-04-26T05:14:52;101864.00;;;2.07;88.24
57990;BME280;58373;51.824;5.564;2023-04-26T05:17:17;101867.34;;;2.09;88.06
57990;BME280;58373;51.824;5.564;2023-04-26T05:19:42;101863.91;;;2.10;87.85
57990;BME280;58373;51.824;5.564;2023-04-26T05:22:07;101862.16;;;2.12;88.17
57990;BME280;58373;51.824;5.564;2023-04-26T05:24:33;101864.59;;;2.16;88.55
57990;BME280;58373;51.824;5.564;2023-04-26T05:26:58;101866.25;;;2.18;88.81
57990;BME280;58373;51.824;5.564;2023-04-26T05:29:27;101865.31;;;2.21;88.92
57990;BME280;58373;51.824;5.564;2023-04-26T05:31:53;101870.25;;;2.27;88.65
57990;BME280;58373;51.824;5.564;2023-04-26T05:34:18;101870.06;;;2.33;88.72
57990;BME280;58373;51.824;5.564;2023-04-26T05:36:43;101870.75;;;2.38;88.27
57990;BME280;58373;51.824;5.564;2023-04-26T05:39:08;101875.75;;;2.43;89.15
57990;BME280;58373;51.824;5.564;2023-04-26T05:41:34;101869.47;;;2.51;89.02
57990;BME280;58373;51.824;5.564;2023-04-26T05:43:59;101872.75;;;2.56;88.63
57990;BME280;58373;51.824;5.564;2023-04-26T05:46:24;101869.22;;;2.60;88.87
57990;BME280;58373;51.824;5.564;2023-04-26T05:48:49;101879.25;;;2.66;88.48
57990;BME280;58373;51.824;5.564;2023-04-26T05:51:15;101885.97;;;2.71;88.61
57990;BME280;58373;51.824;5.564;2023-04-26T05:53:40;101883.19;;;2.77;88.58
57990;BME280;58373;51.824;5.564;2023-04-26T05:56:05;101883.06;;;2.81;89.00
57990;BME280;58373;51.824;5.564;2023-04-26T05:58:31;101885.38;;;2.89;88.78
57990;BME280;58373;51.824;5.564;2023-04-26T06:00:57;101879.22;;;2.95;89.49
57990;BME280;58373;51.824;5.564;2023-04-26T06:03:23;101883.28;;;3.00;89.69
57990;BME280;58373;51.824;5.564;2023-04-26T06:05:48;101883.09;;;3.06;89.51
57990;BME280;58373;51.824;5.564;2023-04-26T06:08:13;101881.09;;;3.14;89.32
57990;BME280;58373;51.824;5.564;2023-04-26T06:10:38;101884.19;;;3.24;89.43
57990;BME280;58373;51.824;5.564;2023-04-26T06:13:04;101882.25;;;3.31;89.85
57990;BME280;58373;51.824;5.564;2023-04-26T06:15:29;101876.91;;;3.37;89.50
57990;BME280;58373;51.824;5.564;2023-04-26T06:17:55;101881.81;;;3.43;89.68
57990;BME280;58373;51.824;5.564;2023-04-26T06:20:20;101885.06;;;3.48;89.47
57990;BME280;58373;51.824;5.564;2023-04-26T06:22:46;101889.22;;;3.52;89.63
57990;BME280;58373;51.824;5.564;2023-04-26T06:25:11;101878.72;;;3.58;89.34
57990;BME280;58373;51.824;5.564;2023-04-26T06:27:36;101893.84;;;3.66;89.38
57990;BME280;58373;51.824;5.564;2023-04-26T06:30:03;101889.31;;;3.72;89.65
57990;BME280;58373;51.824;5.564;2023-04-26T06:32:28;101882.19;;;3.81;89.20
57990;BME280;58373;51.824;5.564;2023-04-26T06:34:54;101888.69;;;3.91;89.53
57990;BME280;58373;51.824;5.564;2023-04-26T06:37:19;101893.44;;;4.00;89.50
57990;BME280;58373;51.824;5.564;2023-04-26T06:39:45;101884.53;;;4.10;89.56
57990;BME280;58373;51.824;5.564;2023-04-26T06:42:10;101896.13;;;4.20;89.21
57990;BME280;58373;51.824;5.564;2023-04-26T06:44:35;101902.59;;;4.31;90.12
57990;BME280;58373;51.824;5.564;2023-04-26T06:47:00;101895.34;;;4.40;89.71
57990;BME280;58373;51.824;5.564;2023-04-26T06:49:26;101902.72;;;4.49;89.44
57990;BME280;58373;51.824;5.564;2023-04-26T06:51:51;101903.31;;;4.56;89.36
57990;BME280;58373;51.824;5.564;2023-04-26T06:54:16;101908.97;;;4.64;89.37
57990;BME280;58373;51.824;5.564;2023-04-26T06:56:42;101906.03;;;4.73;90.05
57990;BME280;58373;51.824;5.564;2023-04-26T06:59:07;101899.72;;;4.82;89.48
57990;BME280;58373;51.824;5.564;2023-04-26T07:01:33;101909.69;;;4.90;89.34
57990;BME280;58373;51.824;5.564;2023-04-26T07:04:02;101910.19;;;4.98;88.86
57990;BME280;58373;51.824;5.564;2023-04-26T07:06:28;101916.78;;;5.05;89.20
57990;BME280;58373;51.824;5.564;2023-04-26T07:08:53;101910.56;;;5.11;88.95
57990;BME280;58373;51.824;5.564;2023-04-26T07:11:18;101919.75;;;5.16;88.89
57990;BME280;58373;51.824;5.564;2023-04-26T07:13:43;101909.19;;;5.22;88.52
57990;BME280;58373;51.824;5.564;2023-04-26T07:16:08;101916.69;;;5.27;88.16
57990;BME280;58373;51.824;5.564;2023-04-26T07:18:34;101909.63;;;5.32;88.96
57990;BME280;58373;51.824;5.564;2023-04-26T07:20:59;101910.19;;;5.39;88.54
57990;BME280;58373;51.824;5.564;2023-04-26T07:23:24;101904.78;;;5.45;88.66
57990;BME280;58373;51.824;5.564;2023-04-26T07:25:49;101906.28;;;5.50;87.49
57990;BME280;58373;51.824;5.564;2023-04-26T07:28:14;101911.22;;;5.55;87.63
57990;BME280;58373;51.824;5.564;2023-04-26T07:30:40;101910.94;;;5.61;87.32
57990;BME280;58373;51.824;5.564;2023-04-26T07:33:05;101908.19;;;5.66;87.29
57990;BME280;58373;51.824;5.564;2023-04-26T07:35:31;101905.28;;;5.73;87.13
57990;BME280;58373;51.824;5.564;2023-04-26T07:37:58;101896.50;;;5.77;86.75
57990;BME280;58373;51.824;5.564;2023-04-26T07:40:23;101899.72;;;5.82;87.50
57990;BME280;58373;51.824;5.564;2023-04-26T07:42:50;101901.28;;;5.86;86.45
57990;BME280;58373;51.824;5.564;2023-04-26T07:45:15;101899.38;;;5.90;86.44
57990;BME280;58373;51.824;5.564;2023-04-26T07:47:40;101901.84;;;5.93;86.02
57990;BME280;58373;51.824;5.564;2023-04-26T07:50:06;101897.25;;;6.00;86.35
57990;BME280;58373;51.824;5.564;2023-04-26T07:52:31;101907.16;;;6.09;85.88
57990;BME280;58373;51.824;5.564;2023-04-26T07:54:56;101898.38;;;6.13;86.30
57990;BME280;58373;51.824;5.564;2023-04-26T07:57:22;101907.63;;;6.17;85.66
57990;BME280;58373;51.824;5.564;2023-04-26T07:59:47;101913.41;;;6.22;86.25
57990;BME280;58373;51.824;5.564;2023-04-26T08:02:12;101908.25;;;6.22;85.94
57990;BME280;58373;51.824;5.564;2023-04-26T08:04:37;101911.59;;;6.24;84.98
57990;BME280;58373;51.824;5.564;2023-04-26T08:07:02;101913.41;;;6.22;85.28
57990;BME280;58373;51.824;5.564;2023-04-26T08:09:28;101919.31;;;6.24;84.59
57990;BME280;58373;51.824;5.564;2023-04-26T08:11:53;101920.09;;;6.26;84.31
57990;BME280;58373;51.824;5.564;2023-04-26T08:14:18;101927.53;;;6.32;84.37
57990;BME280;58373;51.824;5.564;2023-04-26T08:16:43;101923.03;;;6.37;83.40
57990;BME280;58373;51.824;5.564;2023-04-26T08:19:09;101922.88;;;6.41;84.16
57990;BME280;58373;51.824;5.564;2023-04-26T08:21:34;101926.06;;;6.46;82.71
57990;BME280;58373;51.824;5.564;2023-04-26T08:24:00;101916.50;;;6.48;82.73
57990;BME280;58373;51.824;5.564;2023-04-26T08:26:25;101918.81;;;6.54;83.03
57990;BME280;58373;51.824;5.564;2023-04-26T08:28:50;101925.34;;;6.61;82.26
57990;BME280;58373;51.824;5.564;2023-04-26T08:31:15;101925.69;;;6.72;82.77
57990;BME280;58373;51.824;5.564;2023-04-26T08:33:41;101926.00;;;6.83;82.36
57990;BME280;58373;51.824;5.564;2023-04-26T08:36:06;101925.84;;;6.86;81.52
57990;BME280;58373;51.824;5.564;2023-04-26T08:38:32;101920.69;;;6.86;81.45
57990;BME280;58373;51.824;5.564;2023-04-26T08:41:00;101925.00;;;6.86;80.47
57990;BME280;58373;51.824;5.564;2023-04-26T08:43:27;101918.09;;;6.86;81.18
57990;BME280;58373;51.824;5.564;2023-04-26T08:45:52;101918.72;;;6.91;80.91
57990;BME280;58373;51.824;5.564;2023-04-26T08:48:17;101908.09;;;6.98;80.83
57990;BME280;58373;51.824;5.564;2023-04-26T08:50:43;101919.94;;;7.02;79.55
57990;BME280;58373;51.824;5.564;2023-04-26T08:53:14;101917.13;;;7.06;79.57
57990;BME280;58373;51.824;5.564;2023-04-26T08:55:49;101918.81;;;7.07;78.86
57990;BME280;58373;51.824;5.564;2023-04-26T08:58:16;101921.00;;;7.15;78.67
57990;BME280;58373;51.824;5.564;2023-04-26T09:00:44;101916.88;;;7.28;78.56
57990;BME280;58373;51.824;5.564;2023-04-26T09:03:10;101911.28;;;7.37;77.25
57990;BME280;58373;51.824;5.564;2023-04-26T09:05:36;101911.28;;;7.37;73.10
57990;BME280;58373;51.824;5.564;2023-04-26T09:08:03;101909.28;;;7.42;74.33
57990;BME280;58373;51.824;5.564;2023-04-26T09:10:29;101911.16;;;7.56;75.51
57990;BME280;58373;51.824;5.564;2023-04-26T09:12:56;101912.72;;;7.76;74.74
57990;BME280;58373;51.824;5.564;2023-04-26T09:15:22;101895.75;;;7.88;72.16
57990;BME280;58373;51.824;5.564;2023-04-26T09:23:25;101896.09;;;8.13;70.45
57990;BME280;58373;51.824;5.564;2023-04-26T09:25:50;101899.25;;;8.03;71.74
57990;BME280;58373;51.824;5.564;2023-04-26T09:28:19;101899.09;;;8.06;66.19
57990;BME280;58373;51.824;5.564;2023-04-26T09:30:45;101892.41;;;8.02;69.30
57990;BME280;58373;51.824;5.564;2023-04-26T09:33:10;101890.09;;;8.13;70.41
57990;BME280;58373;51.824;5.564;2023-04-26T09:35:36;101892.28;;;8.20;69.54
57990;BME280;58373;51.824;5.564;2023-04-26T09:40:31;101895.00;;;8.33;69.42
57990;BME280;58373;51.824;5.564;2023-04-26T09:43:04;101898.78;;;8.43;67.61
57990;BME280;58373;51.824;5.564;2023-04-26T09:45:30;101900.03;;;8.36;63.66
57990;BME280;58373;51.824;5.564;2023-04-26T09:50:40;101910.44;;;8.50;65.13
57990;BME280;58373;51.824;5.564;2023-04-26T09:53:06;101903.19;;;8.57;66.25
57990;BME280;58373;51.824;5.564;2023-04-26T09:55:31;101909.78;;;8.63;67.03
57990;BME280;58373;51.824;5.564;2023-04-26T09:57:57;101900.94;;;8.67;66.72
57990;BME280;58373;51.824;5.564;2023-04-26T10:00:24;101900.94;;;8.67;66.60
57990;BME280;58373;51.824;5.564;2023-04-26T10:02:51;101896.25;;;8.58;65.42
57990;BME280;58373;51.824;5.564;2023-04-26T10:05:16;101900.13;;;8.50;64.43
57990;BME280;58373;51.824;5.564;2023-04-26T10:07:42;101897.34;;;8.54;64.85
57990;BME280;58373;51.824;5.564;2023-04-26T10:10:07;101894.75;;;8.54;66.08
57990;BME280;58373;51.824;5.564;2023-04-26T10:12:33;101903.75;;;8.62;63.40
57990;BME280;58373;51.824;5.564;2023-04-26T10:14:58;101896.47;;;8.39;62.47
57990;BME280;58373;51.824;5.564;2023-04-26T10:17:23;101901.25;;;8.29;63.19
57990;BME280;58373;51.824;5.564;2023-04-26T10:19:50;101900.91;;;8.19;62.49
57990;BME280;58373;51.824;5.564;2023-04-26T10:22:24;101900.25;;;8.16;62.20
57990;BME280;58373;51.824;5.564;2023-04-26T10:24:50;101907.44;;;8.27;61.17
57990;BME280;58373;51.824;5.564;2023-04-26T10:27:15;101910.75;;;8.13;61.25
57990;BME280;58373;51.824;5.564;2023-04-26T10:32:21;101898.41;;;8.02;61.34
57990;BME280;58373;51.824;5.564;2023-04-26T10:37:31;101899.94;;;8.22;61.45
57990;BME280;58373;51.824;5.564;2023-04-26T10:40:21;101893.25;;;8.18;61.85
57990;BME280;58373;51.824;5.564;2023-04-26T10:42:41;101900.44;;;8.29;62.18
57990;BME280;58373;51.824;5.564;2023-04-26T10:48:21;101899.53;;;8.45;59.96
57990;BME280;58373;51.824;5.564;2023-04-26T10:56:10;101895.09;;;8.16;58.75
57990;BME280;58373;51.824;5.564;2023-04-26T10:58:39;101894.59;;;8.09;56.77
57990;BME280;58373;51.824;5.564;2023-04-26T11:03:35;101902.00;;;7.99;59.55
57990;BME280;58373;51.824;5.564;2023-04-26T11:06:04;101892.59;;;7.98;60.27
57990;BME280;58373;51.824;5.564;2023-04-26T11:08:29;101889.22;;;7.96;60.09
57990;BME280;58373;51.824;5.564;2023-04-26T11:13:31;101899.09;;;8.06;59.81
57990;BME280;58373;51.824;5.564;2023-04-26T11:16:00;101887.75;;;7.92;58.87
57990;BME280;58373;51.824;5.564;2023-04-26T11:18:29;101886.75;;;7.95;60.16
57990;BME280;58373;51.824;5.564;2023-04-26T11:20:55;101891.41;;;7.88;60.48
57990;BME280;58373;51.824;5.564;2023-04-26T11:23:21;101882.22;;;7.83;60.47
57990;BME280;58373;51.824;5.564;2023-04-26T11:25:46;101882.16;;;7.84;61.68
57990;BME280;58373;51.824;5.564;2023-04-26T11:28:12;101881.22;;;7.85;61.89
57990;BME280;58373;51.824;5.564;2023-04-26T11:30:37;101884.91;;;7.81;60.18
57990;BME280;58373;51.824;5.564;2023-04-26T11:33:03;101881.41;;;7.82;59.32
57990;BME280;58373;51.824;5.564;2023-04-26T11:35:29;101863.47;;;7.79;60.43
57990;BME280;58373;51.824;5.564;2023-04-26T11:37:57;101875.31;;;7.83;60.17
57990;BME280;58373;51.824;5.564;2023-04-26T11:40:26;101872.72;;;7.83;60.60
57990;BME280;58373;51.824;5.564;2023-04-26T11:42:52;101874.06;;;7.90;61.54
57990;BME280;58373;51.824;5.564;2023-04-26T11:45:17;101866.75;;;7.98;61.55
57990;BME280;58373;51.824;5.564;2023-04-26T11:47:42;101878.56;;;8.03;61.44
57990;BME280;58373;51.824;5.564;2023-04-26T11:50:08;101871.41;;;8.08;61.55
57990;BME280;58373;51.824;5.564;2023-04-26T11:52:34;101873.94;;;8.09;62.15
57990;BME280;58373;51.824;5.564;2023-04-26T11:55:00;101875.41;;;8.13;60.33
57990;BME280;58373;51.824;5.564;2023-04-26T11:57:29;101878.75;;;8.15;61.71
57990;BME280;58373;51.824;5.564;2023-04-26T12:00:05;101878.91;;;8.28;61.44
57990;BME280;58373;51.824;5.564;2023-04-26T12:02:30;101876.75;;;8.20;61.71
57990;BME280;58373;51.824;5.564;2023-04-26T12:04:58;101883.25;;;8.28;60.81
57990;BME280;58373;51.824;5.564;2023-04-26T12:07:24;101888.81;;;8.20;61.90
57990;BME280;58373;51.824;5.564;2023-04-26T12:09:49;101892.56;;;8.30;60.77
57990;BME280;58373;51.824;5.564;2023-04-26T12:12:14;101893.50;;;8.29;58.76
57990;BME280;58373;51.824;5.564;2023-04-26T12:14:40;101885.25;;;8.22;59.84
57990;BME280;58373;51.824;5.564;2023-04-26T12:17:05;101885.94;;;8.26;58.81
57990;BME280;58373;51.824;5.564;2023-04-26T12:19:34;101874.81;;;8.24;59.88
57990;BME280;58373;51.824;5.564;2023-04-26T12:22:03;101882.25;;;8.30;60.98
57990;BME280;58373;51.824;5.564;2023-04-26T12:24:30;101877.91;;;8.46;61.86
57990;BME280;58373;51.824;5.564;2023-04-26T12:27:00;101873.91;;;8.57;58.79
57990;BME280;58373;51.824;5.564;2023-04-26T12:29:26;101875.56;;;8.58;60.61
57990;BME280;58373;51.824;5.564;2023-04-26T12:31:54;101881.13;;;8.66;60.50
57990;BME280;58373;51.824;5.564;2023-04-26T12:34:19;101881.69;;;8.71;60.19
57990;BME280;58373;51.824;5.564;2023-04-26T12:36:45;101879.34;;;8.82;60.23
57990;BME280;58373;51.824;5.564;2023-04-26T12:39:10;101881.50;;;8.90;60.43
57990;BME280;58373;51.824;5.564;2023-04-26T12:41:37;101882.81;;;8.97;60.74
57990;BME280;58373;51.824;5.564;2023-04-26T12:44:02;101882.72;;;8.98;58.60
57990;BME280;58373;51.824;5.564;2023-04-26T12:46:27;101895.22;;;9.06;60.65
57990;BME280;58373;51.824;5.564;2023-04-26T12:48:52;101891.44;;;9.12;60.22
57990;BME280;58373;51.824;5.564;2023-04-26T12:51:18;101887.56;;;9.19;60.17
57990;BME280;58373;51.824;5.564;2023-04-26T12:53:43;101882.03;;;9.25;59.85
57990;BME280;58373;51.824;5.564;2023-04-26T12:56:08;101878.34;;;9.29;58.83
57990;BME280;58373;51.824;5.564;2023-04-26T12:58:33;101885.38;;;9.41;57.38
57990;BME280;58373;51.824;5.564;2023-04-26T13:00:58;101880.94;;;9.43;56.42
57990;BME280;58373;51.824;5.564;2023-04-26T13:03:24;101876.78;;;9.41;56.60
57990;BME280;58373;51.824;5.564;2023-04-26T13:05:49;101876.59;;;9.44;55.18
57990;BME280;58373;51.824;5.564;2023-04-26T13:08:14;101879.06;;;9.45;53.17
57990;BME280;58373;51.824;5.564;2023-04-26T13:10:41;101884.47;;;9.42;52.73
57990;BME280;58373;51.824;5.564;2023-04-26T13:13:06;101881.75;;;9.44;56.47
57990;BME280;58373;51.824;5.564;2023-04-26T13:15:32;101879.19;;;9.58;57.34
57990;BME280;58373;51.824;5.564;2023-04-26T13:17:57;101877.78;;;9.67;55.77
57990;BME280;58373;51.824;5.564;2023-04-26T13:20:22;101873.34;;;9.69;56.57
57990;BME280;58373;51.824;5.564;2023-04-26T13:22:47;101869.72;;;9.57;54.07